createdAt,value
2018-08-11T00:00:58.178Z,13.05
2018-08-11T00:03:25.534Z,13.01
2018-08-11T00:05:52.813Z,12.97
2018-08-11T00:08:20.258Z,12.94
2018-08-11T00:10:47.887Z,12.93
2018-08-11T00:13:15.514Z,12.92
2018-08-11T00:15:42.851Z,12.89
2018-08-11T00:18:10.268Z,12.86
2018-08-11T00:20:37.617Z,12.87
2018-08-11T00:23:05.612Z,12.84
2018-08-11T00:25:33.170Z,12.83
2018-08-11T00:28:00.457Z,12.87
2018-08-11T00:30:27.964Z,12.90
2018-08-11T00:32:55.284Z,12.91
2018-08-11T00:35:23.544Z,12.88
2018-08-11T00:37:50.966Z,12.86
2018-08-11T00:40:19.455Z,12.90
2018-08-11T00:42:48.044Z,12.96
2018-08-11T00:45:16.019Z,12.94
2018-08-11T00:47:43.469Z,12.94
2018-08-11T00:50:18.738Z,13.05
2018-08-11T00:52:46.112Z,13.12
2018-08-11T00:55:13.865Z,13.18
2018-08-11T00:57:41.789Z,13.23
2018-08-11T01:00:13.548Z,13.25
2018-08-11T01:02:41.449Z,13.25
2018-08-11T01:05:11.409Z,13.24
2018-08-11T01:07:39.578Z,13.23
2018-08-11T01:10:07.706Z,13.08
2018-08-11T01:12:35.049Z,13.05
2018-08-11T01:15:03.059Z,13.07
2018-08-11T01:17:31.121Z,13.04
2018-08-11T01:19:58.482Z,13.10
2018-08-11T01:22:25.802Z,13.13
2018-08-11T01:24:53.335Z,13.14
2018-08-11T01:27:20.654Z,13.19
2018-08-11T01:29:48.678Z,13.31
2018-08-11T01:32:16.090Z,13.30
2018-08-11T01:34:43.398Z,13.90
2018-08-11T01:37:10.743Z,15.26
2018-08-11T01:39:39.529Z,17.07
2018-08-11T01:42:06.837Z,18.90
2018-08-11T01:44:34.115Z,20.43
2018-08-11T01:47:01.384Z,16.86
2018-08-11T01:49:28.657Z,16.19
2018-08-11T01:51:55.920Z,15.81
2018-08-11T01:54:23.217Z,15.59
2018-08-11T01:56:50.526Z,15.49
2018-08-11T01:59:17.987Z,15.39
2018-08-11T02:01:45.346Z,15.31
2018-08-11T02:04:12.707Z,15.21
2018-08-11T02:06:40.128Z,15.15
2018-08-11T02:09:08.588Z,15.12
2018-08-11T02:11:35.860Z,14.98
2018-08-11T02:14:03.107Z,14.94
2018-08-11T02:16:30.436Z,14.90
2018-08-11T02:18:57.706Z,14.84
2018-08-11T02:21:24.980Z,14.82
2018-08-11T02:23:52.326Z,14.77
2018-08-11T02:26:19.675Z,14.70
2018-08-11T02:28:47.005Z,14.65
2018-08-11T02:31:14.583Z,14.60
2018-08-11T02:33:42.136Z,14.57
2018-08-11T02:36:09.499Z,14.53
2018-08-11T02:38:36.833Z,14.40
2018-08-11T02:41:04.137Z,14.31
2018-08-11T02:43:31.472Z,14.26
2018-08-11T02:45:59.429Z,14.12
2018-08-11T02:48:26.784Z,14.06
2018-08-11T02:50:54.763Z,13.97
2018-08-11T02:53:22.029Z,13.89
2018-08-11T02:55:49.465Z,13.87
2018-08-11T02:58:16.789Z,13.73
2018-08-11T03:00:44.655Z,13.77
2018-08-11T03:03:11.965Z,13.69
2018-08-11T03:05:39.317Z,13.64
2018-08-11T03:08:06.609Z,13.58
2018-08-11T03:10:33.870Z,13.58
2018-08-11T03:13:01.169Z,13.51
2018-08-11T03:15:28.483Z,13.52
2018-08-11T03:17:55.762Z,13.47
2018-08-11T03:20:23.044Z,13.46
2018-08-11T03:22:50.350Z,13.44
2018-08-11T03:25:17.707Z,13.43
2018-08-11T03:27:45.083Z,13.44
2018-08-11T03:30:12.479Z,13.45
2018-08-11T03:32:39.766Z,13.44
2018-08-11T03:35:07.109Z,13.34
2018-08-11T03:37:35.181Z,13.45
2018-08-11T03:40:02.470Z,13.37
2018-08-11T03:42:30.442Z,13.30
2018-08-11T03:44:57.752Z,13.33
2018-08-11T03:47:25.131Z,13.53
2018-08-11T03:49:52.529Z,13.58
2018-08-11T03:52:19.849Z,13.43
2018-08-11T03:54:47.260Z,13.38
2018-08-11T03:57:14.609Z,13.35
2018-08-11T03:59:42.284Z,13.38
2018-08-11T04:02:09.713Z,13.44
2018-08-11T04:04:36.985Z,13.45
2018-08-11T04:07:04.401Z,13.47
2018-08-11T04:09:32.297Z,13.47
2018-08-11T04:11:59.639Z,13.52
2018-08-11T04:14:26.904Z,13.54
2018-08-11T04:16:54.300Z,13.64
2018-08-11T04:19:21.608Z,13.62
2018-08-11T04:21:49.460Z,13.69
2018-08-11T04:24:16.829Z,13.67
2018-08-11T04:26:44.066Z,13.69
2018-08-11T04:29:11.417Z,13.60
2018-08-11T04:31:38.674Z,13.47
2018-08-11T04:34:06.317Z,13.42
2018-08-11T04:36:33.642Z,13.39
2018-08-11T04:39:00.887Z,13.47
2018-08-11T04:41:28.200Z,13.40
2018-08-11T04:43:55.511Z,13.41
2018-08-11T04:46:22.838Z,13.37
2018-08-11T04:48:50.162Z,13.29
2018-08-11T04:51:17.408Z,13.37
2018-08-11T04:53:44.712Z,13.33
2018-08-11T04:56:12.218Z,13.37
2018-08-11T04:58:40.268Z,13.36
2018-08-11T05:01:07.618Z,13.40
2018-08-11T05:03:35.116Z,13.26
2018-08-11T05:06:02.401Z,13.29
2018-08-11T05:08:29.677Z,13.28
2018-08-11T05:10:57.020Z,13.30
2018-08-11T05:13:24.308Z,13.47
2018-08-11T05:15:51.732Z,13.42
2018-08-11T05:18:19.062Z,13.53
2018-08-11T05:20:46.407Z,13.61
2018-08-11T05:23:13.720Z,13.72
2018-08-11T05:25:41.042Z,13.75
2018-08-11T13:15:56.030Z,26.75
2018-08-11T13:18:23.458Z,27.78
2018-08-11T13:20:51.028Z,28.61
2018-08-11T13:23:18.399Z,28.16
2018-08-11T13:25:46.064Z,29.25
2018-08-11T13:28:13.572Z,28.44
2018-08-11T13:30:41.672Z,28.46
2018-08-11T13:33:09.132Z,28.69
2018-08-11T13:35:36.587Z,28.88
2018-08-11T13:38:04.177Z,28.81
2018-08-11T13:40:32.232Z,29.07
2018-08-11T13:42:59.683Z,28.61
2018-08-11T13:45:27.320Z,30.08
2018-08-11T13:47:54.614Z,28.73
2018-08-11T13:50:22.858Z,28.42
2018-08-11T13:52:50.833Z,29.20
2018-08-11T13:55:19.373Z,29.30
2018-08-11T13:57:47.067Z,29.52
2018-08-11T14:00:14.390Z,27.76
2018-08-11T14:02:41.821Z,26.55
2018-08-11T14:05:09.378Z,27.87
2018-08-11T14:07:37.538Z,27.69
2018-08-11T14:10:06.973Z,26.35
2018-08-11T14:12:34.344Z,27.65
2018-08-11T14:15:01.676Z,26.56
2018-08-11T14:17:29.882Z,25.90
2018-08-11T14:19:57.244Z,26.42
2018-08-11T14:22:25.428Z,26.15
2018-08-11T14:24:52.898Z,25.21
2018-08-11T14:27:20.270Z,24.72
2018-08-11T14:29:48.250Z,25.04
2018-08-11T14:32:15.702Z,26.16
2018-08-11T14:34:43.052Z,26.92
2018-08-11T14:37:10.421Z,26.04
2018-08-11T14:39:38.962Z,24.72
2018-08-11T14:42:06.681Z,24.42
2018-08-11T14:44:34.300Z,24.08
2018-08-11T14:47:03.109Z,24.21
2018-08-11T14:49:30.804Z,23.93
2018-08-11T14:51:58.127Z,23.35
2018-08-11T14:54:25.544Z,22.55
2018-08-11T14:56:52.942Z,21.60
2018-08-11T14:59:20.398Z,22.76
2018-08-11T15:01:47.971Z,22.88
2018-08-11T15:04:15.556Z,22.28
2018-08-11T15:06:42.931Z,22.47
2018-08-11T15:09:11.263Z,22.98
2018-08-11T15:11:38.972Z,22.65
2018-08-11T15:14:06.507Z,21.60
2018-08-11T15:16:34.215Z,21.96
2018-08-11T15:19:02.068Z,23.38
2018-08-11T15:21:29.412Z,23.68
2018-08-11T15:23:57.990Z,24.36
2018-08-11T15:26:25.523Z,23.77
2018-08-11T15:28:53.127Z,23.56
2018-08-11T15:31:21.137Z,24.70
2018-08-11T15:33:48.577Z,25.46
2018-08-11T15:36:16.104Z,24.38
2018-08-11T15:38:43.652Z,23.61
2018-08-11T15:41:11.438Z,23.95
2018-08-11T15:43:39.111Z,23.91
2018-08-11T15:46:06.834Z,24.62
2018-08-11T15:48:34.243Z,25.31
2018-08-11T15:51:01.838Z,24.56
2018-08-11T15:53:30.022Z,24.39
2018-08-11T15:55:57.662Z,24.29
2018-08-11T15:58:25.242Z,25.19
2018-08-11T16:00:52.643Z,25.38
2018-08-11T16:03:20.102Z,26.50
2018-08-11T16:05:47.669Z,26.03
2018-08-11T16:08:15.344Z,24.86
2018-08-11T16:10:43.535Z,25.57
2018-08-11T16:13:10.991Z,25.39
2018-08-11T16:15:38.381Z,24.79
2018-08-11T16:18:06.002Z,25.21
2018-08-11T16:20:33.571Z,24.09
2018-08-11T16:23:01.557Z,24.90
2018-08-11T16:25:29.431Z,25.77
2018-08-11T16:27:56.869Z,25.95
2018-08-11T16:30:24.299Z,24.82
2018-08-11T16:32:52.043Z,24.52
2018-08-11T16:35:19.426Z,23.46
2018-08-11T16:37:46.783Z,23.23
2018-08-11T16:40:14.266Z,23.30
2018-08-11T16:42:41.646Z,22.41
2018-08-11T16:45:09.794Z,21.38
2018-08-11T16:47:37.533Z,21.27
2018-08-11T16:50:06.066Z,20.98
2018-08-11T16:52:33.567Z,21.16
2018-08-11T16:55:01.023Z,21.20
2018-08-11T16:57:28.705Z,20.93
2018-08-11T16:59:56.106Z,20.78
2018-08-11T17:02:24.057Z,20.64
2018-08-11T17:04:52.195Z,20.32
2018-08-11T17:07:19.973Z,20.09
2018-08-11T17:09:47.345Z,20.13
2018-08-11T17:12:15.137Z,19.90
2018-08-11T17:14:42.820Z,19.84
2018-08-11T17:17:10.304Z,19.81
2018-08-11T17:19:37.717Z,19.90
2018-08-11T17:22:05.570Z,19.57
2018-08-11T17:24:33.094Z,19.40
2018-08-11T17:27:00.596Z,19.49
2018-08-11T17:29:28.272Z,19.56
2018-08-11T17:31:55.963Z,19.36
2018-08-11T17:34:23.794Z,19.26
2018-08-11T17:36:52.393Z,19.10
2018-08-11T17:39:20.044Z,19.16
2018-08-11T17:41:47.391Z,19.06
2018-08-11T17:44:16.536Z,19.08
2018-08-11T17:46:44.129Z,19.06
2018-08-11T17:49:11.758Z,19.09
2018-08-11T17:51:39.179Z,18.86
2018-08-11T17:54:07.673Z,18.75
2018-08-11T17:56:35.019Z,18.76
2018-08-11T17:59:02.702Z,18.83
2018-08-11T18:01:30.030Z,18.71
2018-08-11T18:03:58.304Z,18.56
2018-08-11T18:06:32.839Z,18.61
2018-08-11T18:09:00.561Z,18.62
2018-08-11T18:11:27.905Z,18.56
2018-08-11T18:13:55.321Z,18.55
2018-08-11T18:16:22.747Z,18.52
2018-08-11T18:18:50.549Z,18.43
2018-08-11T18:21:17.902Z,18.43
2018-08-11T18:23:45.481Z,18.36
2018-08-11T18:26:13.407Z,18.28
2018-08-11T18:28:41.066Z,18.22
2018-08-11T18:31:10.364Z,18.08
2018-08-11T18:33:39.579Z,18.05
2018-08-11T18:36:07.318Z,18.04
2018-08-11T18:38:35.014Z,17.98
2018-08-11T18:41:03.341Z,17.92
2018-08-11T18:43:32.618Z,17.88
2018-08-11T18:46:00.066Z,17.76
2018-08-11T18:48:28.770Z,17.68
2018-08-11T18:50:57.259Z,17.62
2018-08-11T18:53:24.905Z,17.57
2018-08-11T18:55:52.630Z,17.48
2018-08-11T18:58:20.038Z,17.43
2018-08-11T19:00:47.695Z,17.41
2018-08-11T19:03:15.387Z,17.31
2018-08-11T19:05:42.904Z,17.22
2018-08-11T19:08:10.873Z,17.15
2018-08-11T19:10:38.321Z,17.08
2018-08-11T19:13:10.108Z,17.00
2018-08-11T19:15:38.094Z,16.93
2018-08-11T19:18:05.959Z,16.87
2018-08-11T19:20:33.222Z,16.78
2018-08-11T19:23:00.891Z,16.69
2018-08-11T19:25:28.224Z,16.64
2018-08-11T19:27:56.285Z,16.53
2018-08-11T19:30:23.952Z,16.50
2018-08-11T19:32:51.368Z,16.34
2018-08-11T19:35:19.377Z,16.39
2018-08-11T19:37:46.619Z,16.35
2018-08-11T19:40:14.914Z,16.27
2018-08-11T19:42:42.595Z,16.21
2018-08-11T19:45:11.091Z,16.16
2018-08-11T19:47:38.650Z,16.11
2018-08-11T19:50:08.617Z,16.09
2018-08-11T19:52:36.427Z,15.99
2018-08-11T19:55:04.294Z,15.94
2018-08-11T19:57:33.889Z,15.90
2018-08-11T20:00:01.202Z,15.82
2018-08-11T20:02:28.558Z,15.80
2018-08-11T20:04:55.858Z,15.76
2018-08-11T20:07:24.044Z,15.71
2018-08-11T20:09:52.370Z,15.69
2018-08-11T20:12:20.844Z,15.62
2018-08-11T20:14:50.392Z,15.55
2018-08-11T20:17:19.198Z,15.55
2018-08-11T20:19:48.349Z,15.55
2018-08-11T20:22:19.624Z,15.55
2018-08-11T20:24:47.625Z,15.49
2018-08-11T20:27:16.239Z,15.46
2018-08-11T20:29:44.161Z,15.47
2018-08-11T20:32:12.763Z,15.41
2018-08-11T20:34:40.751Z,15.38
2018-08-11T20:37:08.612Z,15.34
2018-08-11T20:39:37.733Z,15.33
2018-08-11T20:42:06.585Z,15.26
2018-08-11T20:44:34.221Z,15.19
2018-08-11T20:47:02.930Z,15.25
2018-08-11T20:49:30.884Z,15.25
2018-08-11T20:51:59.405Z,15.23
2018-08-11T20:54:27.245Z,15.20
2018-08-11T20:56:54.850Z,15.20
2018-08-11T20:59:23.900Z,15.20
2018-08-11T21:01:51.218Z,15.18
2018-08-11T21:04:18.525Z,15.12
2018-08-11T21:06:45.847Z,15.10
2018-08-11T21:09:13.498Z,15.11
2018-08-11T21:11:41.057Z,15.07
2018-08-11T21:14:08.970Z,14.99
2018-08-11T21:16:36.253Z,15.00
2018-08-11T21:19:03.616Z,14.98
2018-08-11T21:21:30.969Z,14.99
2018-08-11T21:23:58.864Z,14.97
2018-08-11T21:26:26.173Z,14.97
2018-08-11T21:28:53.696Z,14.96
2018-08-11T21:31:21.323Z,14.93
2018-08-11T21:33:48.781Z,14.92
2018-08-11T21:36:16.287Z,15.04
2018-08-11T21:38:43.705Z,15.05
2018-08-11T21:41:11.064Z,15.05
2018-08-11T21:43:38.306Z,14.93
2018-08-11T21:46:05.617Z,15.05
2018-08-11T21:48:33.177Z,15.02
2018-08-11T21:51:00.514Z,14.90
2018-08-11T21:53:27.920Z,14.88
2018-08-11T21:55:55.950Z,14.89
2018-08-11T21:58:23.318Z,14.90
2018-08-11T22:00:56.035Z,14.99
2018-08-11T22:03:23.354Z,14.88
2018-08-11T22:05:50.665Z,14.86
2018-08-11T22:08:18.095Z,14.85
2018-08-11T22:10:45.447Z,14.85
2018-08-11T22:13:12.734Z,14.78
2018-08-11T22:15:40.357Z,14.77
2018-08-11T22:18:07.714Z,14.67
2018-08-11T22:20:34.966Z,14.73
2018-08-11T22:23:02.225Z,14.74
2018-08-11T22:25:29.513Z,14.68
2018-08-11T22:27:56.777Z,14.70
2018-08-11T22:30:24.147Z,14.78
2018-08-11T22:32:51.567Z,14.72
2018-08-11T22:35:18.844Z,14.70
2018-08-11T22:37:46.103Z,14.66
2018-08-11T22:40:13.371Z,14.67
2018-08-11T22:42:40.660Z,14.62
2018-08-11T22:45:09.545Z,14.65
2018-08-11T22:47:37.646Z,14.62
2018-08-11T22:50:06.648Z,14.63
2018-08-11T22:52:34.900Z,14.55
2018-08-11T22:55:02.274Z,14.61
2018-08-11T22:57:29.576Z,14.61
2018-08-11T22:59:56.812Z,14.68
2018-08-11T23:02:24.066Z,14.65
2018-08-11T23:04:51.884Z,14.62
2018-08-11T23:07:19.150Z,14.71
2018-08-11T23:09:46.409Z,14.60
2018-08-11T23:12:13.673Z,14.58
2018-08-11T23:14:40.953Z,14.58
2018-08-11T23:17:08.290Z,14.57
2018-08-11T23:19:35.551Z,14.57
2018-08-11T23:22:02.781Z,14.60
2018-08-11T23:24:30.838Z,14.57
2018-08-11T23:26:58.234Z,14.59
2018-08-11T23:29:25.505Z,14.55
2018-08-11T23:31:52.864Z,14.53
2018-08-11T23:34:20.810Z,14.56
2018-08-11T23:36:48.199Z,14.56
2018-08-11T23:39:15.466Z,14.46
2018-08-11T23:41:42.962Z,14.57
2018-08-11T23:44:10.809Z,14.55
2018-08-11T23:46:38.190Z,14.42
2018-08-11T23:49:05.567Z,14.56
2018-08-11T23:51:32.890Z,14.56
2018-08-11T23:54:00.111Z,14.54
2018-08-11T23:56:27.416Z,14.59
2018-08-11T23:58:55.300Z,14.62
